sensor_id;sensor_type;location;lat;lon;timestamp;P1;durP1;ratioP1;P2;durP2;ratioP2
46835;SDS011;32573;51.290;6.926;2023-09-30T00:01:02;3.33;;;1.30;;
46835;SDS011;32573;51.290;6.926;2023-09-30T00:03:36;3.15;;;1.30;;
46835;SDS011;32573;51.290;6.926;2023-09-30T00:06:06;3.53;;;1.30;;
46835;SDS011;32573;51.290;6.926;2023-09-30T00:08:36;2.95;;;1.20;;
46835;SDS011;32573;51.290;6.926;2023-09-30T00:11:06;3.47;;;1.23;;
46835;SDS011;32573;51.290;6.926;2023-09-30T00:13:35;3.08;;;1.10;;
46835;SDS011;32573;51.290;6.926;2023-09-30T00:16:04;3.00;;;1.20;;
46835;SDS011;32573;51.290;6.926;2023-09-30T00:18:33;3.47;;;1.20;;
46835;SDS011;32573;51.290;6.926;2023-09-30T00:21:01;3.35;;;1.20;;
46835;SDS011;32573;51.290;6.926;2023-09-30T00:23:33;3.05;;;1.30;;
46835;SDS011;32573;51.290;6.926;2023-09-30T00:26:03;3.22;;;1.20;;
46835;SDS011;32573;51.290;6.926;2023-09-30T00:28:32;4.28;;;1.27;;
46835;SDS011;32573;51.290;6.926;2023-09-30T00:31:05;3.08;;;1.20;;
46835;SDS011;32573;51.290;6.926;2023-09-30T00:33:36;3.88;;;1.13;;
46835;SDS011;32573;51.290;6.926;2023-09-30T00:36:06;3.30;;;1.33;;
46835;SDS011;32573;51.290;6.926;2023-09-30T00:38:36;3.38;;;1.33;;
46835;SDS011;32573;51.290;6.926;2023-09-30T00:41:06;4.05;;;1.27;;
46835;SDS011;32573;51.290;6.926;2023-09-30T00:43:39;3.28;;;1.40;;
46835;SDS011;32573;51.290;6.926;2023-09-30T00:46:11;4.57;;;1.38;;
46835;SDS011;32573;51.290;6.926;2023-09-30T00:48:46;3.20;;;1.42;;
46835;SDS011;32573;51.290;6.926;2023-09-30T00:51:15;3.70;;;1.55;;
46835;SDS011;32573;51.290;6.926;2023-09-30T00:53:44;4.15;;;1.48;;
46835;SDS011;32573;51.290;6.926;2023-09-30T00:56:15;3.55;;;1.48;;
46835;SDS011;32573;51.290;6.926;2023-09-30T00:58:44;3.10;;;1.30;;
46835;SDS011;32573;51.290;6.926;2023-09-30T01:01:18;3.35;;;1.42;;
46835;SDS011;32573;51.290;6.926;2023-09-30T01:03:48;4.70;;;1.58;;
46835;SDS011;32573;51.290;6.926;2023-09-30T01:06:17;4.65;;;1.73;;
46835;SDS011;32573;51.290;6.926;2023-09-30T01:08:46;3.40;;;1.38;;
46835;SDS011;32573;51.290;6.926;2023-09-30T01:11:16;4.38;;;1.60;;
46835;SDS011;32573;51.290;6.926;2023-09-30T01:13:45;3.47;;;1.58;;
46835;SDS011;32573;51.290;6.926;2023-09-30T01:16:15;4.05;;;1.30;;
46835;SDS011;32573;51.290;6.926;2023-09-30T01:18:43;3.92;;;1.60;;
46835;SDS011;32573;51.290;6.926;2023-09-30T01:21:12;3.58;;;1.48;;
46835;SDS011;32573;51.290;6.926;2023-09-30T01:23:43;3.83;;;1.42;;
46835;SDS011;32573;51.290;6.926;2023-09-30T01:26:13;4.13;;;1.60;;
46835;SDS011;32573;51.290;6.926;2023-09-30T01:28:42;3.65;;;1.48;;
46835;SDS011;32573;51.290;6.926;2023-09-30T01:31:11;4.50;;;1.48;;
46835;SDS011;32573;51.290;6.926;2023-09-30T01:33:40;4.13;;;1.60;;
46835;SDS011;32573;51.290;6.926;2023-09-30T01:36:09;3.80;;;1.38;;
46835;SDS011;32573;51.290;6.926;2023-09-30T01:38:38;3.50;;;1.40;;
46835;SDS011;32573;51.290;6.926;2023-09-30T01:41:09;3.60;;;1.67;;
46835;SDS011;32573;51.290;6.926;2023-09-30T01:43:38;4.47;;;1.60;;
46835;SDS011;32573;51.290;6.926;2023-09-30T01:46:07;4.72;;;1.48;;
46835;SDS011;32573;51.290;6.926;2023-09-30T01:48:36;4.28;;;1.65;;
46835;SDS011;32573;51.290;6.926;2023-09-30T01:51:04;3.63;;;1.38;;
46835;SDS011;32573;51.290;6.926;2023-09-30T01:53:34;2.88;;;1.27;;
46835;SDS011;32573;51.290;6.926;2023-09-30T01:56:03;4.85;;;1.50;;
46835;SDS011;32573;51.290;6.926;2023-09-30T01:58:34;4.82;;;1.50;;
46835;SDS011;32573;51.290;6.926;2023-09-30T02:01:03;4.57;;;1.55;;
46835;SDS011;32573;51.290;6.926;2023-09-30T02:03:32;5.07;;;1.50;;
46835;SDS011;32573;51.290;6.926;2023-09-30T02:06:01;4.63;;;1.73;;
46835;SDS011;32573;51.290;6.926;2023-09-30T02:08:30;3.40;;;1.40;;
46835;SDS011;32573;51.290;6.926;2023-09-30T02:11:00;4.55;;;1.70;;
46835;SDS011;32573;51.290;6.926;2023-09-30T02:13:29;4.20;;;1.80;;
46835;SDS011;32573;51.290;6.926;2023-09-30T02:15:59;4.03;;;1.60;;
46835;SDS011;32573;51.290;6.926;2023-09-30T02:18:28;3.97;;;1.50;;
46835;SDS011;32573;51.290;6.926;2023-09-30T02:20:59;4.13;;;1.50;;
46835;SDS011;32573;51.290;6.926;2023-09-30T02:23:28;4.10;;;1.50;;
46835;SDS011;32573;51.290;6.926;2023-09-30T02:25:56;4.10;;;1.70;;
46835;SDS011;32573;51.290;6.926;2023-09-30T02:28:25;4.07;;;1.60;;
46835;SDS011;32573;51.290;6.926;2023-09-30T02:30:54;5.03;;;1.50;;
46835;SDS011;32573;51.290;6.926;2023-09-30T02:33:24;3.90;;;1.58;;
46835;SDS011;32573;51.290;6.926;2023-09-30T02:35:53;3.80;;;1.48;;
46835;SDS011;32573;51.290;6.926;2023-09-30T02:38:22;5.22;;;1.52;;
46835;SDS011;32573;51.290;6.926;2023-09-30T02:40:53;3.50;;;1.25;;
46835;SDS011;32573;51.290;6.926;2023-09-30T02:43:22;3.25;;;1.42;;
46835;SDS011;32573;51.290;6.926;2023-09-30T02:45:51;5.97;;;1.50;;
46835;SDS011;32573;51.290;6.926;2023-09-30T02:48:20;4.20;;;1.50;;
46835;SDS011;32573;51.290;6.926;2023-09-30T02:50:51;4.50;;;1.58;;
46835;SDS011;32573;51.290;6.926;2023-09-30T02:53:19;4.45;;;1.50;;
46835;SDS011;32573;51.290;6.926;2023-09-30T02:55:49;4.45;;;1.42;;
46835;SDS011;32573;51.290;6.926;2023-09-30T02:58:23;3.90;;;1.65;;
46835;SDS011;32573;51.290;6.926;2023-09-30T03:00:52;3.25;;;1.45;;
46835;SDS011;32573;51.290;6.926;2023-09-30T03:03:21;3.40;;;1.40;;
46835;SDS011;32573;51.290;6.926;2023-09-30T03:05:54;4.63;;;1.50;;
46835;SDS011;32573;51.290;6.926;2023-09-30T03:08:23;3.92;;;1.52;;
46835;SDS011;32573;51.290;6.926;2023-09-30T03:10:52;4.88;;;1.50;;
46835;SDS011;32573;51.290;6.926;2023-09-30T03:13:22;5.35;;;1.60;;
46835;SDS011;32573;51.290;6.926;2023-09-30T03:15:50;3.97;;;1.40;;
46835;SDS011;32573;51.290;6.926;2023-09-30T03:18:19;3.83;;;1.40;;
46835;SDS011;32573;51.290;6.926;2023-09-30T03:20:58;3.72;;;1.30;;
46835;SDS011;32573;51.290;6.926;2023-09-30T03:25:58;2.67;;;1.17;;
46835;SDS011;32573;51.290;6.926;2023-09-30T03:28:26;3.17;;;1.30;;
46835;SDS011;32573;51.290;6.926;2023-09-30T03:30:56;4.60;;;1.45;;
46835;SDS011;32573;51.290;6.926;2023-09-30T03:33:25;3.90;;;1.50;;
46835;SDS011;32573;51.290;6.926;2023-09-30T03:35:56;4.10;;;1.40;;
46835;SDS011;32573;51.290;6.926;2023-09-30T03:38:25;3.28;;;1.35;;
46835;SDS011;32573;51.290;6.926;2023-09-30T03:40:54;3.83;;;1.23;;
46835;SDS011;32573;51.290;6.926;2023-09-30T03:43:25;4.22;;;1.42;;
46835;SDS011;32573;51.290;6.926;2023-09-30T03:45:53;3.70;;;1.40;;
46835;SDS011;32573;51.290;6.926;2023-09-30T03:48:24;3.78;;;1.35;;
46835;SDS011;32573;51.290;6.926;2023-09-30T03:50:53;3.83;;;1.45;;
46835;SDS011;32573;51.290;6.926;2023-09-30T03:53:23;4.00;;;1.40;;
46835;SDS011;32573;51.290;6.926;2023-09-30T03:55:53;5.00;;;1.77;;
46835;SDS011;32573;51.290;6.926;2023-09-30T03:58:22;3.97;;;1.48;;
46835;SDS011;32573;51.290;6.926;2023-09-30T04:00:51;3.55;;;1.50;;
46835;SDS011;32573;51.290;6.926;2023-09-30T04:03:20;4.35;;;1.80;;
46835;SDS011;32573;51.290;6.926;2023-09-30T04:05:48;5.15;;;1.63;;
46835;SDS011;32573;51.290;6.926;2023-09-30T04:08:17;4.97;;;1.90;;
46835;SDS011;32573;51.290;6.926;2023-09-30T04:10:48;4.60;;;1.42;;
46835;SDS011;32573;51.290;6.926;2023-09-30T04:13:17;4.90;;;1.65;;
46835;SDS011;32573;51.290;6.926;2023-09-30T04:15:48;5.25;;;2.00;;
46835;SDS011;32573;51.290;6.926;2023-09-30T04:18:17;5.78;;;2.00;;
46835;SDS011;32573;51.290;6.926;2023-09-30T04:20:47;5.07;;;1.88;;
46835;SDS011;32573;51.290;6.926;2023-09-30T04:23:16;5.32;;;1.90;;
46835;SDS011;32573;51.290;6.926;2023-09-30T04:25:48;4.32;;;1.85;;
46835;SDS011;32573;51.290;6.926;2023-09-30T04:28:18;6.70;;;2.25;;
46835;SDS011;32573;51.290;6.926;2023-09-30T04:30:47;5.10;;;2.15;;
46835;SDS011;32573;51.290;6.926;2023-09-30T04:33:17;7.03;;;2.20;;
46835;SDS011;32573;51.290;6.926;2023-09-30T04:35:47;4.78;;;2.08;;
46835;SDS011;32573;51.290;6.926;2023-09-30T04:38:16;6.32;;;2.50;;
46835;SDS011;32573;51.290;6.926;2023-09-30T04:40:45;6.45;;;2.20;;
46835;SDS011;32573;51.290;6.926;2023-09-30T04:43:17;5.20;;;2.15;;
46835;SDS011;32573;51.290;6.926;2023-09-30T04:45:46;8.30;;;2.40;;
46835;SDS011;32573;51.290;6.926;2023-09-30T04:48:17;5.78;;;2.20;;
46835;SDS011;32573;51.290;6.926;2023-09-30T04:50:45;5.15;;;2.25;;
46835;SDS011;32573;51.290;6.926;2023-09-30T04:53:14;7.85;;;2.42;;
46835;SDS011;32573;51.290;6.926;2023-09-30T04:55:44;5.45;;;2.40;;
46835;SDS011;32573;51.290;6.926;2023-09-30T04:58:13;5.70;;;2.53;;
46835;SDS011;32573;51.290;6.926;2023-09-30T05:00:43;6.28;;;2.47;;
46835;SDS011;32573;51.290;6.926;2023-09-30T05:03:12;6.45;;;2.45;;
46835;SDS011;32573;51.290;6.926;2023-09-30T05:05:41;6.40;;;2.60;;
46835;SDS011;32573;51.290;6.926;2023-09-30T05:08:10;6.05;;;2.40;;
46835;SDS011;32573;51.290;6.926;2023-09-30T05:10:41;6.38;;;2.42;;
46835;SDS011;32573;51.290;6.926;2023-09-30T05:13:10;4.88;;;2.30;;
46835;SDS011;32573;51.290;6.926;2023-09-30T05:15:39;5.07;;;2.28;;
46835;SDS011;32573;51.290;6.926;2023-09-30T05:18:10;4.60;;;2.08;;
46835;SDS011;32573;51.290;6.926;2023-09-30T05:20:39;5.90;;;2.10;;
46835;SDS011;32573;51.290;6.926;2023-09-30T05:23:08;4.80;;;2.08;;
46835;SDS011;32573;51.290;6.926;2023-09-30T05:25:39;5.32;;;2.17;;
46835;SDS011;32573;51.290;6.926;2023-09-30T05:28:09;4.25;;;1.90;;
46835;SDS011;32573;51.290;6.926;2023-09-30T05:30:38;5.68;;;2.10;;
46835;SDS011;32573;51.290;6.926;2023-09-30T05:33:07;5.03;;;1.77;;
46835;SDS011;32573;51.290;6.926;2023-09-30T05:35:42;4.97;;;2.00;;
46835;SDS011;32573;51.290;6.926;2023-09-30T05:38:10;4.75;;;1.80;;
46835;SDS011;32573;51.290;6.926;2023-09-30T05:40:39;5.95;;;1.90;;
46835;SDS011;32573;51.290;6.926;2023-09-30T05:43:09;5.45;;;1.90;;
46835;SDS011;32573;51.290;6.926;2023-09-30T05:45:41;4.93;;;1.85;;
46835;SDS011;32573;51.290;6.926;2023-09-30T05:48:16;6.40;;;2.17;;
46835;SDS011;32573;51.290;6.926;2023-09-30T05:50:47;4.88;;;2.00;;
46835;SDS011;32573;51.290;6.926;2023-09-30T05:53:15;5.90;;;2.28;;
46835;SDS011;32573;51.290;6.926;2023-09-30T05:55:44;4.55;;;2.08;;
46835;SDS011;32573;51.290;6.926;2023-09-30T05:58:14;5.13;;;2.10;;
46835;SDS011;32573;51.290;6.926;2023-09-30T06:00:43;5.53;;;1.90;;
46835;SDS011;32573;51.290;6.926;2023-09-30T06:03:12;5.45;;;2.05;;
46835;SDS011;32573;51.290;6.926;2023-09-30T06:05:41;5.68;;;2.50;;
46835;SDS011;32573;51.290;6.926;2023-09-30T06:08:11;5.32;;;2.22;;
46835;SDS011;32573;51.290;6.926;2023-09-30T06:10:41;4.65;;;2.03;;
46835;SDS011;32573;51.290;6.926;2023-09-30T06:13:11;5.32;;;1.92;;
46835;SDS011;32573;51.290;6.926;2023-09-30T06:15:40;5.50;;;1.85;;
46835;SDS011;32573;51.290;6.926;2023-09-30T06:18:10;5.13;;;1.98;;
46835;SDS011;32573;51.290;6.926;2023-09-30T06:20:41;5.60;;;2.30;;
46835;SDS011;32573;51.290;6.926;2023-09-30T06:23:11;5.93;;;2.08;;
46835;SDS011;32573;51.290;6.926;2023-09-30T06:25:40;5.30;;;2.30;;
46835;SDS011;32573;51.290;6.926;2023-09-30T06:28:08;5.22;;;1.90;;
46835;SDS011;32573;51.290;6.926;2023-09-30T06:30:39;4.68;;;2.42;;
46835;SDS011;32573;51.290;6.926;2023-09-30T06:33:10;5.03;;;2.28;;
46835;SDS011;32573;51.290;6.926;2023-09-30T06:35:42;6.35;;;2.08;;
46835;SDS011;32573;51.290;6.926;2023-09-30T06:38:19;4.43;;;1.95;;
46835;SDS011;32573;51.290;6.926;2023-09-30T06:40:48;4.50;;;1.98;;
46835;SDS011;32573;51.290;6.926;2023-09-30T06:43:16;4.88;;;2.42;;
46835;SDS011;32573;51.290;6.926;2023-09-30T06:45:45;5.40;;;1.77;;
46835;SDS011;32573;51.290;6.926;2023-09-30T06:48:14;4.63;;;2.10;;
46835;SDS011;32573;51.290;6.926;2023-09-30T06:50:44;4.72;;;2.15;;
46835;SDS011;32573;51.290;6.926;2023-09-30T06:53:15;4.57;;;2.00;;
46835;SDS011;32573;51.290;6.926;2023-09-30T06:55:46;4.95;;;2.28;;
46835;SDS011;32573;51.290;6.926;2023-09-30T06:58:14;6.25;;;2.40;;
46835;SDS011;32573;51.290;6.926;2023-09-30T07:00:49;5.35;;;2.10;;
46835;SDS011;32573;51.290;6.926;2023-09-30T07:03:18;4.80;;;2.30;;
46835;SDS011;32573;51.290;6.926;2023-09-30T07:05:52;4.47;;;2.15;;
46835;SDS011;32573;51.290;6.926;2023-09-30T07:08:21;7.38;;;2.40;;
46835;SDS011;32573;51.290;6.926;2023-09-30T07:10:51;7.32;;;2.50;;
46835;SDS011;32573;51.290;6.926;2023-09-30T07:13:20;5.93;;;2.38;;
46835;SDS011;32573;51.290;6.926;2023-09-30T07:15:49;6.28;;;2.40;;
46835;SDS011;32573;51.290;6.926;2023-09-30T07:18:18;6.13;;;2.42;;
46835;SDS011;32573;51.290;6.926;2023-09-30T07:20:47;4.78;;;2.33;;
46835;SDS011;32573;51.290;6.926;2023-09-30T07:23:15;7.00;;;2.67;;
46835;SDS011;32573;51.290;6.926;2023-09-30T07:25:46;5.32;;;2.35;;
46835;SDS011;32573;51.290;6.926;2023-09-30T07:28:17;6.18;;;2.60;;
46835;SDS011;32573;51.290;6.926;2023-09-30T07:30:46;5.68;;;2.33;;
46835;SDS011;32573;51.290;6.926;2023-09-30T07:33:14;6.32;;;2.30;;
46835;SDS011;32573;51.290;6.926;2023-09-30T07:35:43;7.43;;;3.05;;
46835;SDS011;32573;51.290;6.926;2023-09-30T07:38:12;5.65;;;2.53;;
46835;SDS011;32573;51.290;6.926;2023-09-30T07:40:41;6.75;;;2.55;;
46835;SDS011;32573;51.290;6.926;2023-09-30T07:43:10;5.95;;;2.95;;
46835;SDS011;32573;51.290;6.926;2023-09-30T07:45:41;6.28;;;2.47;;
46835;SDS011;32573;51.290;6.926;2023-09-30T07:48:11;6.05;;;2.45;;
46835;SDS011;32573;51.290;6.926;2023-09-30T07:50:41;6.30;;;2.97;;
46835;SDS011;32573;51.290;6.926;2023-09-30T07:53:10;6.53;;;2.67;;
46835;SDS011;32573;51.290;6.926;2023-09-30T07:55:39;7.28;;;3.05;;
46835;SDS011;32573;51.290;6.926;2023-09-30T07:58:08;8.00;;;3.05;;
46835;SDS011;32573;51.290;6.926;2023-09-30T08:00:37;7.47;;;3.03;;
46835;SDS011;32573;51.290;6.926;2023-09-30T08:03:07;6.13;;;3.10;;
46835;SDS011;32573;51.290;6.926;2023-09-30T08:05:36;6.57;;;2.95;;
46835;SDS011;32573;51.290;6.926;2023-09-30T08:08:05;8.90;;;3.20;;
46835;SDS011;32573;51.290;6.926;2023-09-30T08:10:34;7.25;;;2.70;;
46835;SDS011;32573;51.290;6.926;2023-09-30T08:13:03;7.15;;;3.00;;
46835;SDS011;32573;51.290;6.926;2023-09-30T08:15:32;7.05;;;2.65;;
46835;SDS011;32573;51.290;6.926;2023-09-30T08:18:03;6.53;;;2.80;;
46835;SDS011;32573;51.290;6.926;2023-09-30T08:20:34;7.35;;;2.92;;
46835;SDS011;32573;51.290;6.926;2023-09-30T08:23:03;6.35;;;3.00;;
46835;SDS011;32573;51.290;6.926;2023-09-30T08:25:32;6.47;;;3.05;;
46835;SDS011;32573;51.290;6.926;2023-09-30T08:28:01;8.18;;;3.10;;
46835;SDS011;32573;51.290;6.926;2023-09-30T08:30:30;6.97;;;3.10;;
46835;SDS011;32573;51.290;6.926;2023-09-30T08:32:59;7.43;;;3.00;;
46835;SDS011;32573;51.290;6.926;2023-09-30T08:35:27;5.40;;;3.00;;
46835;SDS011;32573;51.290;6.926;2023-09-30T08:37:57;7.40;;;2.63;;
46835;SDS011;32573;51.290;6.926;2023-09-30T08:40:26;5.97;;;3.08;;
46835;SDS011;32573;51.290;6.926;2023-09-30T08:42:55;6.15;;;3.03;;
46835;SDS011;32573;51.290;6.926;2023-09-30T08:45:24;6.15;;;2.83;;
46835;SDS011;32573;51.290;6.926;2023-09-30T08:47:56;7.40;;;3.13;;
46835;SDS011;32573;51.290;6.926;2023-09-30T08:50:28;6.05;;;2.78;;
46835;SDS011;32573;51.290;6.926;2023-09-30T08:52:58;7.22;;;3.20;;
46835;SDS011;32573;51.290;6.926;2023-09-30T08:55:28;6.38;;;2.90;;
46835;SDS011;32573;51.290;6.926;2023-09-30T08:57:57;6.53;;;3.03;;
46835;SDS011;32573;51.290;6.926;2023-09-30T09:00:27;8.93;;;3.58;;
46835;SDS011;32573;51.290;6.926;2023-09-30T09:02:57;7.78;;;3.30;;
46835;SDS011;32573;51.290;6.926;2023-09-30T09:05:26;6.22;;;3.20;;
46835;SDS011;32573;51.290;6.926;2023-09-30T09:07:55;6.18;;;3.10;;
46835;SDS011;32573;51.290;6.926;2023-09-30T09:10:25;7.75;;;3.42;;
46835;SDS011;32573;51.290;6.926;2023-09-30T09:12:55;8.50;;;3.42;;
46835;SDS011;32573;51.290;6.926;2023-09-30T09:15:25;6.97;;;3.20;;
46835;SDS011;32573;51.290;6.926;2023-09-30T09:17:55;6.75;;;2.90;;
46835;SDS011;32573;51.290;6.926;2023-09-30T09:20:25;6.43;;;3.00;;
46835;SDS011;32573;51.290;6.926;2023-09-30T09:22:54;5.45;;;2.80;;
46835;SDS011;32573;51.290;6.926;2023-09-30T09:25:29;7.07;;;3.07;;
46835;SDS011;32573;51.290;6.926;2023-09-30T09:28:06;6.38;;;3.00;;
46835;SDS011;32573;51.290;6.926;2023-09-30T09:30:37;5.70;;;2.70;;
46835;SDS011;32573;51.290;6.926;2023-09-30T09:33:08;6.43;;;2.38;;
46835;SDS011;32573;51.290;6.926;2023-09-30T09:35:37;4.95;;;2.80;;
46835;SDS011;32573;51.290;6.926;2023-09-30T09:38:06;6.80;;;2.83;;
46835;SDS011;32573;51.290;6.926;2023-09-30T09:40:37;7.13;;;3.00;;
46835;SDS011;32573;51.290;6.926;2023-09-30T09:43:09;5.38;;;2.30;;
46835;SDS011;32573;51.290;6.926;2023-09-30T09:45:38;6.28;;;2.60;;
46835;SDS011;32573;51.290;6.926;2023-09-30T09:48:08;5.90;;;2.80;;
46835;SDS011;32573;51.290;6.926;2023-09-30T09:50:38;7.20;;;2.67;;
46835;SDS011;32573;51.290;6.926;2023-09-30T09:53:09;7.10;;;2.70;;
46835;SDS011;32573;51.290;6.926;2023-09-30T09:55:40;7.38;;;2.95;;
46835;SDS011;32573;51.290;6.926;2023-09-30T09:58:11;5.82;;;2.60;;
46835;SDS011;32573;51.290;6.926;2023-09-30T10:00:42;6.25;;;2.83;;
46835;SDS011;32573;51.290;6.926;2023-09-30T10:03:12;6.40;;;2.40;;
46835;SDS011;32573;51.290;6.926;2023-09-30T10:05:41;6.30;;;2.67;;
46835;SDS011;32573;51.290;6.926;2023-09-30T10:08:11;5.38;;;2.60;;
46835;SDS011;32573;51.290;6.926;2023-09-30T10:10:45;5.97;;;2.50;;
46835;SDS011;32573;51.290;6.926;2023-09-30T10:19:17;6.22;;;2.10;;
46835;SDS011;32573;51.290;6.926;2023-09-30T10:24:50;5.13;;;2.42;;
46835;SDS011;32573;51.290;6.926;2023-09-30T10:27:32;5.85;;;2.58;;
46835;SDS011;32573;51.290;6.926;2023-09-30T10:30:11;6.28;;;2.40;;
46835;SDS011;32573;51.290;6.926;2023-09-30T10:35:43;6.35;;;2.45;;
46835;SDS011;32573;51.290;6.926;2023-09-30T10:41:08;6.72;;;2.63;;
46835;SDS011;32573;51.290;6.926;2023-09-30T10:43:40;5.10;;;2.22;;
46835;SDS011;32573;51.290;6.926;2023-09-30T10:51:44;5.30;;;2.20;;
46835;SDS011;32573;51.290;6.926;2023-09-30T10:54:14;4.70;;;2.15;;
46835;SDS011;32573;51.290;6.926;2023-09-30T10:56:42;5.50;;;2.10;;
46835;SDS011;32573;51.290;6.926;2023-09-30T10:59:17;5.32;;;1.98;;
46835;SDS011;32573;51.290;6.926;2023-09-30T11:01:46;4.80;;;2.08;;
46835;SDS011;32573;51.290;6.926;2023-09-30T11:04:16;4.68;;;2.50;;
46835;SDS011;32573;51.290;6.926;2023-09-30T11:06:45;5.05;;;2.10;;
46835;SDS011;32573;51.290;6.926;2023-09-30T11:09:15;4.68;;;2.10;;
46835;SDS011;32573;51.290;6.926;2023-09-30T11:11:45;3.78;;;1.70;;
46835;SDS011;32573;51.290;6.926;2023-09-30T11:14:19;3.85;;;1.95;;
46835;SDS011;32573;51.290;6.926;2023-09-30T11:16:49;4.07;;;1.63;;
46835;SDS011;32573;51.290;6.926;2023-09-30T11:19:19;4.93;;;1.70;;
46835;SDS011;32573;51.290;6.926;2023-09-30T11:21:49;4.07;;;1.80;;
46835;SDS011;32573;51.290;6.926;2023-09-30T11:24:18;3.92;;;1.85;;
46835;SDS011;32573;51.290;6.926;2023-09-30T11:26:47;6.03;;;1.90;;
46835;SDS011;32573;51.290;6.926;2023-09-30T11:29:22;3.83;;;1.73;;
46835;SDS011;32573;51.290;6.926;2023-09-30T11:31:52;5.55;;;2.00;;
46835;SDS011;32573;51.290;6.926;2023-09-30T11:34:30;4.25;;;1.90;;
46835;SDS011;32573;51.290;6.926;2023-09-30T11:37:01;3.90;;;1.70;;
46835;SDS011;32573;51.290;6.926;2023-09-30T11:39:30;4.30;;;1.60;;
46835;SDS011;32573;51.290;6.926;2023-09-30T11:42:01;5.03;;;1.60;;
46835;SDS011;32573;51.290;6.926;2023-09-30T11:44:33;3.70;;;1.50;;
46835;SDS011;32573;51.290;6.926;2023-09-30T11:47:14;3.83;;;1.30;;
46835;SDS011;32573;51.290;6.926;2023-09-30T11:49:43;4.05;;;1.50;;
46835;SDS011;32573;51.290;6.926;2023-09-30T11:52:12;2.88;;;1.40;;
46835;SDS011;32573;51.290;6.926;2023-09-30T11:54:42;3.67;;;1.38;;
46835;SDS011;32573;51.290;6.926;2023-09-30T11:57:12;4.28;;;1.40;;
46835;SDS011;32573;51.290;6.926;2023-09-30T11:59:44;2.90;;;1.30;;
46835;SDS011;32573;51.290;6.926;2023-09-30T12:02:14;4.30;;;1.40;;
46835;SDS011;32573;51.290;6.926;2023-09-30T12:04:45;4.38;;;1.70;;
46835;SDS011;32573;51.290;6.926;2023-09-30T12:07:15;3.97;;;1.50;;
46835;SDS011;32573;51.290;6.926;2023-09-30T12:09:44;3.88;;;1.60;;
46835;SDS011;32573;51.290;6.926;2023-09-30T12:12:13;4.43;;;1.75;;
46835;SDS011;32573;51.290;6.926;2023-09-30T12:14:44;3.20;;;1.35;;
46835;SDS011;32573;51.290;6.926;2023-09-30T12:17:13;3.90;;;1.50;;
46835;SDS011;32573;51.290;6.926;2023-09-30T12:19:42;3.25;;;1.55;;
46835;SDS011;32573;51.290;6.926;2023-09-30T12:22:11;4.32;;;1.73;;
46835;SDS011;32573;51.290;6.926;2023-09-30T12:24:40;3.78;;;1.60;;
46835;SDS011;32573;51.290;6.926;2023-09-30T12:27:09;3.53;;;1.50;;
46835;SDS011;32573;51.290;6.926;2023-09-30T12:29:41;3.47;;;1.30;;
46835;SDS011;32573;51.290;6.926;2023-09-30T12:32:12;3.42;;;1.50;;
46835;SDS011;32573;51.290;6.926;2023-09-30T12:34:42;4.68;;;1.58;;
46835;SDS011;32573;51.290;6.926;2023-09-30T12:37:11;2.80;;;1.40;;
46835;SDS011;32573;51.290;6.926;2023-09-30T12:39:40;3.30;;;1.50;;
46835;SDS011;32573;51.290;6.926;2023-09-30T12:42:12;5.75;;;2.40;;
46835;SDS011;32573;51.290;6.926;2023-09-30T12:44:41;4.68;;;1.58;;
46835;SDS011;32573;51.290;6.926;2023-09-30T12:47:12;4.60;;;1.60;;
46835;SDS011;32573;51.290;6.926;2023-09-30T12:49:43;3.60;;;1.52;;
46835;SDS011;32573;51.290;6.926;2023-09-30T12:52:11;3.70;;;1.70;;
46835;SDS011;32573;51.290;6.926;2023-09-30T12:54:40;3.20;;;1.42;;
46835;SDS011;32573;51.290;6.926;2023-09-30T12:57:09;3.78;;;1.60;;
46835;SDS011;32573;51.290;6.926;2023-09-30T12:59:40;3.30;;;1.40;;
46835;SDS011;32573;51.290;6.926;2023-09-30T13:02:09;3.95;;;1.58;;
46835;SDS011;32573;51.290;6.926;2023-09-30T13:04:41;3.20;;;1.40;;
46835;SDS011;32573;51.290;6.926;2023-09-30T13:07:12;3.90;;;1.50;;
46835;SDS011;32573;51.290;6.926;2023-09-30T13:09:44;4.13;;;1.50;;
46835;SDS011;32573;51.290;6.926;2023-09-30T13:12:13;3.85;;;1.52;;
46835;SDS011;32573;51.290;6.926;2023-09-30T13:14:43;4.50;;;1.60;;
46835;SDS011;32573;51.290;6.926;2023-09-30T13:17:14;3.60;;;1.42;;
46835;SDS011;32573;51.290;6.926;2023-09-30T13:19:43;4.85;;;1.60;;
46835;SDS011;32573;51.290;6.926;2023-09-30T13:22:19;3.28;;;1.60;;
46835;SDS011;32573;51.290;6.926;2023-09-30T13:24:48;3.47;;;1.50;;
46835;SDS011;32573;51.290;6.926;2023-09-30T13:27:18;3.97;;;1.50;;
46835;SDS011;32573;51.290;6.926;2023-09-30T13:29:48;3.90;;;1.42;;
46835;SDS011;32573;51.290;6.926;2023-09-30T13:32:18;2.70;;;1.30;;
46835;SDS011;32573;51.290;6.926;2023-09-30T13:34:47;3.33;;;1.52;;
46835;SDS011;32573;51.290;6.926;2023-09-30T13:37:18;4.00;;;1.63;;
46835;SDS011;32573;51.290;6.926;2023-09-30T13:39:47;4.07;;;1.50;;
46835;SDS011;32573;51.290;6.926;2023-09-30T13:42:17;3.70;;;1.30;;
46835;SDS011;32573;51.290;6.926;2023-09-30T13:44:46;3.17;;;1.30;;
46835;SDS011;32573;51.290;6.926;2023-09-30T13:47:16;3.63;;;1.40;;
46835;SDS011;32573;51.290;6.926;2023-09-30T13:49:47;3.85;;;1.50;;
46835;SDS011;32573;51.290;6.926;2023-09-30T13:52:16;3.38;;;1.40;;
46835;SDS011;32573;51.290;6.926;2023-09-30T13:54:44;3.28;;;1.50;;
46835;SDS011;32573;51.290;6.926;2023-09-30T13:57:13;3.50;;;1.40;;
46835;SDS011;32573;51.290;6.926;2023-09-30T13:59:42;3.40;;;1.63;;
46835;SDS011;32573;51.290;6.926;2023-09-30T14:02:14;3.30;;;1.33;;
46835;SDS011;32573;51.290;6.926;2023-09-30T14:04:43;3.65;;;1.08;;
46835;SDS011;32573;51.290;6.926;2023-09-30T14:07:14;3.45;;;1.40;;
46835;SDS011;32573;51.290;6.926;2023-09-30T14:09:45;2.95;;;1.20;;
46835;SDS011;32573;51.290;6.926;2023-09-30T14:12:14;3.97;;;1.50;;
46835;SDS011;32573;51.290;6.926;2023-09-30T14:14:43;3.15;;;1.20;;
46835;SDS011;32573;51.290;6.926;2023-09-30T14:17:12;3.55;;;1.60;;
46835;SDS011;32573;51.290;6.926;2023-09-30T14:19:41;4.28;;;1.52;;
46835;SDS011;32573;51.290;6.926;2023-09-30T14:22:11;3.40;;;1.30;;
46835;SDS011;32573;51.290;6.926;2023-09-30T14:24:41;3.08;;;1.25;;
46835;SDS011;32573;51.290;6.926;2023-09-30T14:27:09;3.30;;;1.30;;
46835;SDS011;32573;51.290;6.926;2023-09-30T14:29:40;5.65;;;1.38;;
46835;SDS011;32573;51.290;6.926;2023-09-30T14:32:10;2.88;;;1.20;;
46835;SDS011;32573;51.290;6.926;2023-09-30T14:34:39;3.58;;;1.40;;
46835;SDS011;32573;51.290;6.926;2023-09-30T14:37:07;4.65;;;1.40;;
46835;SDS011;32573;51.290;6.926;2023-09-30T14:39:36;3.60;;;1.27;;
46835;SDS011;32573;51.290;6.926;2023-09-30T14:42:07;3.40;;;1.20;;
46835;SDS011;32573;51.290;6.926;2023-09-30T14:44:35;3.15;;;1.30;;
46835;SDS011;32573;51.290;6.926;2023-09-30T14:47:04;3.33;;;1.30;;
46835;SDS011;32573;51.290;6.926;2023-09-30T14:49:33;3.80;;;1.20;;
46835;SDS011;32573;51.290;6.926;2023-09-30T14:52:02;3.03;;;1.17;;
46835;SDS011;32573;51.290;6.926;2023-09-30T14:54:32;2.97;;;1.10;;
46835;SDS011;32573;51.290;6.926;2023-09-30T14:57:01;3.85;;;1.17;;
46835;SDS011;32573;51.290;6.926;2023-09-30T14:59:33;3.20;;;1.20;;
46835;SDS011;32573;51.290;6.926;2023-09-30T15:02:02;3.00;;;1.20;;
46835;SDS011;32573;51.290;6.926;2023-09-30T15:04:33;2.28;;;1.00;;
46835;SDS011;32573;51.290;6.926;2023-09-30T15:07:02;3.00;;;1.17;;
46835;SDS011;32573;51.290;6.926;2023-09-30T15:09:31;2.22;;;0.90;;
46835;SDS011;32573;51.290;6.926;2023-09-30T15:12:00;2.97;;;1.10;;
46835;SDS011;32573;51.290;6.926;2023-09-30T15:14:28;3.05;;;1.20;;
46835;SDS011;32573;51.290;6.926;2023-09-30T15:16:59;2.72;;;1.20;;
46835;SDS011;32573;51.290;6.926;2023-09-30T15:19:27;4.88;;;1.20;;
46835;SDS011;32573;51.290;6.926;2023-09-30T15:21:56;3.83;;;1.25;;
46835;SDS011;32573;51.290;6.926;2023-09-30T15:24:25;3.30;;;1.30;;
46835;SDS011;32573;51.290;6.926;2023-09-30T15:26:54;2.85;;;1.23;;